Redwood City, CA (94063)

11:50 PM PDT on September 01, 2014 (GMT -0700)
Centennial | Change Station
CLOSE
Current Station
Personal Weather Station
Location: Redwood City, CA
Elevation: 10 ft
Nearby Weather Stations

Elev 10 ft 37.50 °N, 122.24 °W | Updated 5 minutes ago

Clear
Clear
64.9 °F
Feels Like 64.9 °F
N
0.0
Wind Variable Wind from ESE
Gusts 1.0 mph

Today
High -- | Low -- °F
--% Chance of Precip.
Yesterday
High -- | Low -- °F
Precip. -- in
6:39 AM 7:37 PM
Waxing Crescent, 48% visible
Pressure 29.80 in
Visibility 10.0 miles
Clouds Clear
Dew Point 58 °F
Humidity 77%
Rainfall 0.00 in
Snow Depth Not available.
UV 0 out of 12
Pollen 8.40 out of 12
PM2.5 Moderate
Flu Activity Not available.
METAR KSQL 020630Z AUTO 35003KT 10SM CLR 19/14 A2980 RMK AO2

More Conditions Fewer Conditions

Pressure 29.80 in
Visibility 10.0 miles
Clouds Clear
Dew Point 58 °F
Humidity 77%
Rainfall 0.00 in
Snow Depth Not available.
UV 0 out of 12
Pollen 8.40 out of 12
PM2.5 Moderate
Flu Activity Not available.
METAR KSQL 020630Z AUTO 35003KT 10SM CLR 19/14 A2980 RMK AO2

More Conditions Fewer Conditions

10-Day Weather Forecast

Almanac

Astronomy

Sep. 01, 2014 Rise Set
Actual Time 6:39 AM PDT 7:37 PM PDT
Civil Twilight 6:12 AM PDT 8:04 PM PDT
Nautical Twilight 5:40 AM PDT 8:35 PM PDT
Astronomical Twilight 5:07 AM PDT 9:08 PM PDT
Moon 1:22 PM PDT (9/1) 11:51 PM PDT (9/1)
Length of Visible Light 13h 51m
Length of Day
12h 58m
Tomorrow will be 2m 19s shorter.
Waxing Crescent, 48% of the Moon is Illuminated
Sep 2
Waxing Crescent
Sep 2
First Quarter
Sep 8
Full
Sep 15
Last Quarter
Sep 24
New

Community

WunderPhotos

Upload Photos

1,749,589 photos uploaded!

WunderBlogs® & News

Nearby

Air Quality

  Air Quality AQ Index Pollutant
Yesterday Good
PM2.5
Yesterday Good
OZONE
Current Moderate
PM2.5
Monday Good
OZONE
Tuesday Good
OZONE
Wednesday Good
OZONE
Thursday Good
OZONE
Friday Good
OZONE

Snow Depth

Station Depth Elevation
Blue Lakes 0 in 8000 ft
Forestdale Creek 0 in 8029 ft
Echo Peak 0 in 7800 ft
Ebbetts Pass 0 in 8700 ft
Leavitt Lake 0 in 9400 ft

Earthquake Activity

City Distance Mag. Time & Date
Yountville, California 60 miles 2.6 1:15 PM PDT
2014-09-01
Gilroy, California 53 miles 3.5 9:10 AM PDT
2014-09-01
Green Valley, California 52 miles 2.5 6:37 AM PDT
2014-08-31
Napa, California 51 miles 3.2 1:56 AM PDT
2014-08-31
Minimum magnitude displayed is 2.5.

Coastal Water Temperatures

Place Temperature
No Stations Reporting

Nearby Weather Stations